createdAt,value
2022-12-09T00:00:54.688Z,44.92
2022-12-09T00:03:24.116Z,39.78
2022-12-09T00:05:51.824Z,42.20
2022-12-09T00:08:19.320Z,44.10
2022-12-09T00:10:46.923Z,38.88
2022-12-09T00:13:14.429Z,39.67
2022-12-09T00:15:43.222Z,43.42
2022-12-09T00:18:11.144Z,38.85
2022-12-09T00:20:40.191Z,42.08
2022-12-09T00:23:07.823Z,35.63
2022-12-09T00:25:35.373Z,33.83
2022-12-09T00:28:02.939Z,41.33
2022-12-09T00:30:30.604Z,32.75
2022-12-09T00:32:58.630Z,47.88
2022-12-09T00:35:26.680Z,33.58
2022-12-09T00:37:56.178Z,29.58
2022-12-09T00:40:24.130Z,30.20
2022-12-09T00:42:51.873Z,32.22
2022-12-09T00:45:19.754Z,37.72
2022-12-09T00:47:47.810Z,32.78
2022-12-09T00:50:15.875Z,35.33
2022-12-09T00:52:43.566Z,38.42
2022-12-09T00:55:12.760Z,32.92
2022-12-09T00:57:40.636Z,35.40
2022-12-09T01:00:09.101Z,38.10
2022-12-09T01:02:37.376Z,29.42
2022-12-09T01:05:05.609Z,30.95
2022-12-09T01:07:33.199Z,34.25
2022-12-09T01:10:00.725Z,32.30
2022-12-09T01:12:29.546Z,36.45
2022-12-09T01:14:57.209Z,29.33
2022-12-09T01:17:25.208Z,27.67
2022-12-09T01:19:52.927Z,36.10
2022-12-09T01:22:20.939Z,29.38
2022-12-09T01:24:48.877Z,30.60
2022-12-09T01:27:16.708Z,38.28
2022-12-09T01:29:45.573Z,35.80
2022-12-09T01:32:14.485Z,35.88
2022-12-09T01:34:42.456Z,31.80
2022-12-09T01:37:10.235Z,26.92
2022-12-09T01:39:38.527Z,26.25
2022-12-09T01:42:10.956Z,26.15
2022-12-09T01:44:38.427Z,28.73
2022-12-09T01:47:22.087Z,24.65
2022-12-09T01:49:49.985Z,24.17
2022-12-09T01:52:19.670Z,22.15
2022-12-09T01:54:47.903Z,26.88
2022-12-09T01:57:15.818Z,32.30
2022-12-09T01:59:44.744Z,29.73
2022-12-09T02:02:15.552Z,29.65
2022-12-09T02:04:46.195Z,29.17
2022-12-09T02:07:15.732Z,28.52
2022-12-09T02:09:44.548Z,27.02
2022-12-09T02:12:14.055Z,29.25
2022-12-09T02:14:43.547Z,29.15
2022-12-09T02:17:19.188Z,27.30
2022-12-09T02:19:55.978Z,24.60
2022-12-09T02:22:25.679Z,30.58
2022-12-09T02:24:57.901Z,31.55
2022-12-09T02:27:29.440Z,32.50
2022-12-09T02:30:08.855Z,33.47
2022-12-09T02:32:55.209Z,24.33
2022-12-09T02:35:28.648Z,27.17
2022-12-09T02:37:58.505Z,29.80
2022-12-09T02:40:30.916Z,33.90
2022-12-09T02:42:59.622Z,31.85
2022-12-09T02:45:29.276Z,32.03
2022-12-09T02:48:02.066Z,29.33
2022-12-09T02:50:33.362Z,36.47
2022-12-09T02:53:03.271Z,36.75
2022-12-09T02:55:33.618Z,38.65
2022-12-09T02:58:01.742Z,35.47
2022-12-09T03:00:29.598Z,30.60
2022-12-09T03:02:58.740Z,35.60
2022-12-09T03:05:31.868Z,38.17
2022-12-09T03:08:08.080Z,36.95
2022-12-09T03:10:38.571Z,29.75
2022-12-09T03:13:07.122Z,33.97
2022-12-09T03:15:36.218Z,32.50
2022-12-09T03:18:04.892Z,31.90
2022-12-09T03:20:35.717Z,28.75
2022-12-09T03:23:05.729Z,31.35
2022-12-09T03:25:36.116Z,32.30
2022-12-09T03:28:05.668Z,38.83
2022-12-09T03:30:34.987Z,38.47
2022-12-09T03:33:03.810Z,37.58
2022-12-09T03:35:34.249Z,41.63
2022-12-09T03:38:02.806Z,41.92
2022-12-09T03:40:32.363Z,42.90
2022-12-09T03:43:01.775Z,37.35
2022-12-09T03:45:29.772Z,36.03
2022-12-09T03:47:58.170Z,39.13
2022-12-09T03:50:28.235Z,40.35
2022-12-09T03:52:59.848Z,45.30
2022-12-09T03:55:30.048Z,41.05
2022-12-09T03:57:59.336Z,39.35
2022-12-09T04:00:27.107Z,35.03
2022-12-09T04:02:54.777Z,39.17
2022-12-09T04:05:22.734Z,34.78
2022-12-09T04:07:50.332Z,31.75
2022-12-09T04:10:18.037Z,37.58
2022-12-09T04:12:45.581Z,37.67
2022-12-09T04:15:15.152Z,35.95
2022-12-09T04:17:43.177Z,23.08
2022-12-09T04:20:11.817Z,29.92
2022-12-09T04:22:39.823Z,26.13
2022-12-09T04:25:07.758Z,26.13
2022-12-09T04:27:35.716Z,30.92
2022-12-09T04:30:03.810Z,35.13
2022-12-09T04:32:33.766Z,29.25
2022-12-09T04:35:01.596Z,28.52
2022-12-09T04:37:29.507Z,21.58
2022-12-09T04:39:57.377Z,25.92
2022-12-09T04:42:25.060Z,31.00
2022-12-09T04:44:52.697Z,24.65
2022-12-09T04:47:20.383Z,26.25
2022-12-09T04:49:49.690Z,30.58
2022-12-09T04:52:17.931Z,23.85
2022-12-09T04:54:45.534Z,30.70
2022-12-09T04:57:13.260Z,28.13
2022-12-09T04:59:40.756Z,27.23
2022-12-09T05:02:08.568Z,26.60
2022-12-09T05:04:36.355Z,27.60
2022-12-09T05:07:06.195Z,25.25
2022-12-09T05:09:34.436Z,31.70
2022-12-09T05:12:02.318Z,24.40
2022-12-09T05:14:30.179Z,22.25
2022-12-09T05:16:58.158Z,25.33
2022-12-09T05:19:25.827Z,20.75
2022-12-09T05:21:53.598Z,24.02
2022-12-09T05:24:22.527Z,20.83
2022-12-09T05:26:50.185Z,21.23
2022-12-09T05:29:22.544Z,25.85
2022-12-09T05:31:51.760Z,27.13
2022-12-09T05:34:19.942Z,29.05
2022-12-09T05:36:47.612Z,24.98
2022-12-09T05:39:15.282Z,22.13
2022-12-09T05:41:44.584Z,21.05
2022-12-09T05:44:12.434Z,19.92
2022-12-09T05:46:40.363Z,21.52
2022-12-09T05:49:08.162Z,20.05
2022-12-09T05:51:36.202Z,19.42
2022-12-09T05:54:05.759Z,23.08
2022-12-09T05:56:34.363Z,21.42
2022-12-09T05:59:04.398Z,19.83
2022-12-09T06:01:32.478Z,26.13
2022-12-09T06:04:00.428Z,24.30
2022-12-09T06:06:30.975Z,26.27
2022-12-09T06:09:00.022Z,23.15
2022-12-09T06:11:29.149Z,20.10
2022-12-09T06:13:57.585Z,22.00
2022-12-09T06:16:27.215Z,20.00
2022-12-09T06:18:55.367Z,25.25
2022-12-09T06:21:23.710Z,20.70
2022-12-09T06:23:51.697Z,22.58
2022-12-09T06:26:20.920Z,24.02
2022-12-09T06:28:48.953Z,35.35
2022-12-09T06:31:16.770Z,25.58
2022-12-09T06:33:54.827Z,27.95
2022-12-09T06:36:24.268Z,28.35
2022-12-09T06:38:52.025Z,27.65
2022-12-09T06:41:19.949Z,23.42
2022-12-09T06:43:47.728Z,22.45
2022-12-09T06:46:16.270Z,22.25
2022-12-09T06:48:44.738Z,25.90
2022-12-09T06:51:14.382Z,23.58
2022-12-09T06:53:42.347Z,26.02
2022-12-09T06:56:12.704Z,29.38
2022-12-09T06:58:41.305Z,28.35
2022-12-09T07:01:13.638Z,28.08
2022-12-09T07:03:42.237Z,26.75
2022-12-09T07:06:17.984Z,29.63
2022-12-09T07:08:45.901Z,30.90
2022-12-09T07:11:13.972Z,37.67
2022-12-09T07:13:41.744Z,32.13
2022-12-09T07:16:09.491Z,33.35
2022-12-09T07:18:37.387Z,32.53
2022-12-09T07:21:08.698Z,25.33
2022-12-09T07:23:37.752Z,28.55
2022-12-09T07:26:07.391Z,29.98
2022-12-09T07:28:35.270Z,31.98
2022-12-09T07:31:03.145Z,27.95
2022-12-09T07:33:31.168Z,30.70
2022-12-09T07:36:00.115Z,25.52
2022-12-09T07:38:28.459Z,26.13
2022-12-09T07:41:05.541Z,28.23
2022-12-09T07:43:33.747Z,24.88
2022-12-09T07:46:05.912Z,16.77
2022-12-09T07:48:33.783Z,22.60
2022-12-09T07:51:02.119Z,17.35
2022-12-09T07:53:29.756Z,18.35
2022-12-09T07:56:01.859Z,18.92
2022-12-09T07:58:29.409Z,21.52
2022-12-09T08:00:57.232Z,17.65
2022-12-09T08:03:25.400Z,24.77
2022-12-09T08:05:53.852Z,19.20
2022-12-09T08:08:22.566Z,18.73
2022-12-09T08:10:51.680Z,18.83
2022-12-09T08:13:23.713Z,21.98
2022-12-09T08:15:51.704Z,18.42
2022-12-09T08:18:19.649Z,20.27
2022-12-09T08:20:47.919Z,22.08
2022-12-09T08:23:15.878Z,22.45
2022-12-09T08:25:43.966Z,17.55
2022-12-09T08:28:12.371Z,21.38
2022-12-09T08:30:41.836Z,26.83
2022-12-09T08:33:10.367Z,16.58
2022-12-09T08:35:38.640Z,18.73
2022-12-09T08:38:11.402Z,15.98
2022-12-09T08:40:39.546Z,18.80
2022-12-09T08:43:08.968Z,19.25
2022-12-09T08:45:37.176Z,25.90
2022-12-09T08:48:07.040Z,19.88
2022-12-09T08:50:35.442Z,22.88
2022-12-09T08:53:03.328Z,20.65
2022-12-09T08:55:31.864Z,24.13
2022-12-09T08:58:00.087Z,24.48
2022-12-09T09:00:27.735Z,28.40
2022-12-09T09:02:55.900Z,23.63
2022-12-09T09:05:25.918Z,28.77
2022-12-09T09:07:54.957Z,24.50
2022-12-09T09:10:24.161Z,24.25
2022-12-09T09:12:52.120Z,32.30
2022-12-09T09:15:20.149Z,27.63
2022-12-09T09:17:51.513Z,35.13
2022-12-09T09:20:20.171Z,35.28
2022-12-09T09:22:49.272Z,32.22
2022-12-09T09:25:17.165Z,33.20
2022-12-09T09:27:44.664Z,31.75
2022-12-09T09:30:13.303Z,40.47
2022-12-09T09:32:42.342Z,27.02
2022-12-09T09:35:10.975Z,29.60
2022-12-09T09:37:38.975Z,39.58
2022-12-09T09:40:11.661Z,39.47
2022-12-09T09:42:45.297Z,45.63
2022-12-09T09:45:15.903Z,38.13
2022-12-09T09:47:47.266Z,42.60
2022-12-09T09:50:23.061Z,45.95
2022-12-09T09:52:51.886Z,40.70
2022-12-09T09:55:25.156Z,48.47
2022-12-09T09:57:58.213Z,47.83
2022-12-09T10:00:28.723Z,46.72
2022-12-09T10:03:01.152Z,51.88
2022-12-09T10:05:31.702Z,55.47
2022-12-09T10:08:05.184Z,60.13
2022-12-09T10:10:40.305Z,57.22
2022-12-09T10:13:25.330Z,60.78
2022-12-09T10:16:03.793Z,47.67
2022-12-09T10:18:38.820Z,59.85
2022-12-09T10:21:40.932Z,67.40
2022-12-09T10:24:18.427Z,78.00
2022-12-09T10:26:52.043Z,75.28
2022-12-09T10:29:23.312Z,66.68
2022-12-09T10:31:52.440Z,67.85
2022-12-09T10:34:20.330Z,64.03
2022-12-09T10:36:48.833Z,61.08
2022-12-09T10:39:19.044Z,65.10
2022-12-09T10:42:06.387Z,62.80
2022-12-09T10:44:34.117Z,70.88
2022-12-09T10:47:03.183Z,69.47
2022-12-09T10:49:31.613Z,70.40
2022-12-09T10:52:00.096Z,72.53
2022-12-09T10:54:33.154Z,69.45
2022-12-09T10:57:03.641Z,77.93
2022-12-09T10:59:32.094Z,92.50
2022-12-09T11:02:02.283Z,72.13
2022-12-09T11:04:33.278Z,74.75
2022-12-09T11:07:05.210Z,63.83
2022-12-09T11:09:34.479Z,79.00
2022-12-09T11:12:05.999Z,71.72
2022-12-09T11:14:35.850Z,75.47
2022-12-09T11:17:12.953Z,75.18
2022-12-09T11:19:40.849Z,65.47
2022-12-09T11:22:16.105Z,61.10
2022-12-09T11:24:45.018Z,54.95
2022-12-09T11:27:30.297Z,56.08
2022-12-09T11:30:13.119Z,55.90
2022-12-09T11:32:53.782Z,61.17
2022-12-09T11:35:24.080Z,64.10
2022-12-09T11:37:53.150Z,63.88
2022-12-09T11:40:23.035Z,68.22
2022-12-09T11:42:52.889Z,72.28
2022-12-09T11:45:24.446Z,62.50
2022-12-09T11:48:24.464Z,66.05
2022-12-09T11:50:49.370Z,56.88
2022-12-09T11:53:24.666Z,77.22
2022-12-09T11:55:54.245Z,63.50
2022-12-09T11:58:25.604Z,73.43
2022-12-09T12:00:56.663Z,73.72
2022-12-09T12:03:26.699Z,72.97
2022-12-09T12:05:55.405Z,76.95
2022-12-09T12:08:26.785Z,77.32
2022-12-09T12:10:57.597Z,75.68
2022-12-09T12:13:29.135Z,67.95
2022-12-09T12:15:59.731Z,65.43
2022-12-09T12:18:28.504Z,56.42
2022-12-09T12:21:14.067Z,56.10
2022-12-09T12:23:49.274Z,54.40
2022-12-09T12:26:19.897Z,47.88
2022-12-09T12:29:01.268Z,48.55
2022-12-09T12:31:37.674Z,39.10
2022-12-09T12:34:24.572Z,44.88
2022-12-09T12:37:03.338Z,50.17
2022-12-09T12:39:35.723Z,44.20
2022-12-09T12:42:09.886Z,43.35
2022-12-09T12:47:26.458Z,37.03
2022-12-09T12:50:05.678Z,44.83
2022-12-09T12:53:01.056Z,37.30
2022-12-09T12:55:41.594Z,45.78
2022-12-09T12:58:14.467Z,36.83
2022-12-09T13:00:45.834Z,47.63
2022-12-09T13:03:21.303Z,48.92
2022-12-09T13:05:51.139Z,50.95
2022-12-09T13:08:23.893Z,42.33
2022-12-09T13:10:53.727Z,50.25
2022-12-09T13:13:23.392Z,49.10
2022-12-09T13:15:53.054Z,48.00
2022-12-09T13:18:23.889Z,48.85
2022-12-09T13:20:53.052Z,49.67
2022-12-09T13:23:25.951Z,52.10
2022-12-09T13:25:57.551Z,52.58
2022-12-09T13:28:30.852Z,54.38
2022-12-09T13:30:59.843Z,50.70
2022-12-09T13:33:38.251Z,51.35
2022-12-09T13:36:07.839Z,48.05
2022-12-09T13:38:36.879Z,64.95
2022-12-09T13:41:19.309Z,64.10
2022-12-09T13:43:46.869Z,57.28
2022-12-09T13:46:25.456Z,54.53
2022-12-09T13:48:55.250Z,56.90
2022-12-09T13:51:27.609Z,59.38
2022-12-09T13:54:02.248Z,57.65
2022-12-09T13:56:31.123Z,51.13
2022-12-09T13:59:14.864Z,54.85
2022-12-09T14:01:45.114Z,59.92
2022-12-09T14:04:16.005Z,57.72
2022-12-09T14:06:51.310Z,52.47
2022-12-09T14:09:25.556Z,58.65
2022-12-09T14:11:53.244Z,49.58
2022-12-09T14:14:39.562Z,40.70
2022-12-09T14:17:18.535Z,48.15
2022-12-09T14:19:52.490Z,39.70
2022-12-09T14:22:37.819Z,52.83
2022-12-09T14:25:33.710Z,43.85
2022-12-09T14:28:16.612Z,44.67
2022-12-09T14:30:48.635Z,43.63
2022-12-09T14:33:26.055Z,47.10
2022-12-09T14:35:57.180Z,48.25
2022-12-09T14:38:28.365Z,46.80
2022-12-09T14:41:03.573Z,44.38
2022-12-09T14:43:43.537Z,64.78
2022-12-09T14:46:23.358Z,55.58
2022-12-09T14:48:54.032Z,63.67
2022-12-09T14:51:24.058Z,61.70
2022-12-09T14:53:54.772Z,65.05
2022-12-09T14:56:23.557Z,44.05
2022-12-09T14:58:52.967Z,54.10
2022-12-09T15:01:20.506Z,61.35
2022-12-09T15:03:55.172Z,62.38
2022-12-09T15:06:26.702Z,52.95
2022-12-09T15:08:58.392Z,57.47
2022-12-09T15:11:28.358Z,52.17
2022-12-09T15:13:56.962Z,60.15
2022-12-09T15:16:25.982Z,71.25
2022-12-09T15:18:54.674Z,61.35
2022-12-09T15:21:31.950Z,63.67
2022-12-09T15:24:00.354Z,63.88
2022-12-09T15:26:28.645Z,66.60
2022-12-09T15:28:57.284Z,81.25
2022-12-09T15:31:27.089Z,81.47
2022-12-09T15:33:55.522Z,60.17
2022-12-09T15:36:24.621Z,80.07
2022-12-09T15:39:02.101Z,66.78
2022-12-09T15:42:10.379Z,74.75
2022-12-09T15:44:52.735Z,71.25
2022-12-09T15:47:23.764Z,68.55
2022-12-09T15:49:53.621Z,74.10
2022-12-09T15:52:24.046Z,60.00
2022-12-09T15:54:54.782Z,72.55
2022-12-09T15:57:23.203Z,73.05
2022-12-09T15:59:55.813Z,62.78
2022-12-09T16:02:26.737Z,64.97
2022-12-09T16:04:55.425Z,58.60
2022-12-09T16:07:25.167Z,57.42
2022-12-09T16:10:05.898Z,80.03
2022-12-09T16:12:35.200Z,80.90
2022-12-09T16:15:04.107Z,62.50
2022-12-09T16:17:32.623Z,76.30
2022-12-09T16:20:00.359Z,90.40
2022-12-09T16:22:29.071Z,73.72
2022-12-09T16:25:17.361Z,68.63
2022-12-09T16:27:48.856Z,73.70
2022-12-09T16:30:17.440Z,82.45
2022-12-09T16:32:45.675Z,53.95
2022-12-09T16:35:17.055Z,66.45
2022-12-09T16:41:06.156Z,55.72
2022-12-09T16:43:52.504Z,59.15
2022-12-09T16:46:43.306Z,67.60
2022-12-09T16:49:31.128Z,54.03
2022-12-09T16:52:14.915Z,84.35
2022-12-09T16:54:46.295Z,86.30
2022-12-09T16:57:15.287Z,89.97
2022-12-09T16:59:46.389Z,112.05
2022-12-09T17:02:18.185Z,112.95
2022-12-09T17:04:45.768Z,101.25
2022-12-09T17:07:14.603Z,100.65
2022-12-09T17:09:42.155Z,71.78
2022-12-09T17:12:10.152Z,78.32
2022-12-09T17:14:38.027Z,78.68
2022-12-09T17:17:05.725Z,73.45
2022-12-09T17:19:34.689Z,60.83
2022-12-09T17:22:05.247Z,78.68
2022-12-09T17:24:32.759Z,69.22
2022-12-09T17:27:00.303Z,72.68
2022-12-09T17:29:27.938Z,67.55
2022-12-09T17:31:55.630Z,83.88
2022-12-09T17:34:23.407Z,83.85
2022-12-09T17:36:56.207Z,84.80
2022-12-09T17:39:26.808Z,114.95
2022-12-09T17:41:55.602Z,195.02
2022-12-09T17:44:25.540Z,98.53
2022-12-09T17:46:56.910Z,81.60
2022-12-09T17:49:24.585Z,104.22
2022-12-09T17:51:52.444Z,87.78
2022-12-09T17:54:21.369Z,78.93
2022-12-09T17:56:49.133Z,79.07
2022-12-09T17:59:17.684Z,86.32
2022-12-09T18:01:47.192Z,71.00
2022-12-09T18:04:16.493Z,80.18
2022-12-09T18:06:46.201Z,72.93
2022-12-09T18:09:15.227Z,74.88
2022-12-09T18:11:44.549Z,79.55
2022-12-09T18:14:12.304Z,82.22
2022-12-09T18:16:39.940Z,84.63
2022-12-09T18:19:13.202Z,104.45
2022-12-09T18:21:40.779Z,108.57
2022-12-09T18:24:08.898Z,134.10
2022-12-09T18:26:41.659Z,97.07
2022-12-09T18:29:11.501Z,104.03
2022-12-09T18:31:39.710Z,109.53
2022-12-09T18:34:07.522Z,84.50
2022-12-09T18:36:36.281Z,97.25
2022-12-09T18:39:03.974Z,105.35
2022-12-09T18:41:32.052Z,89.03
2022-12-09T18:44:01.913Z,103.75
2022-12-09T18:46:32.178Z,108.55
2022-12-09T18:49:01.227Z,106.03
2022-12-09T18:51:29.639Z,112.82
2022-12-09T18:53:57.806Z,118.60
2022-12-09T18:56:25.659Z,100.20
2022-12-09T18:59:09.467Z,112.18
2022-12-09T19:01:43.876Z,129.15
2022-12-09T19:06:40.850Z,107.25
2022-12-09T19:09:09.369Z,137.00
2022-12-09T19:11:38.040Z,131.77
2022-12-09T19:14:06.068Z,118.00
2022-12-09T19:16:33.846Z,120.10
2022-12-09T19:19:09.438Z,169.88
2022-12-09T19:21:38.466Z,144.68
2022-12-09T19:24:06.412Z,124.72
2022-12-09T19:26:37.781Z,123.38
2022-12-09T19:29:06.690Z,118.50
2022-12-09T19:31:36.019Z,124.10
2022-12-09T19:34:08.504Z,121.53
2022-12-09T19:36:39.178Z,111.43
2022-12-09T19:39:10.870Z,130.15
2022-12-09T19:41:39.619Z,124.32
2022-12-09T19:44:07.823Z,103.75
2022-12-09T19:46:35.551Z,123.45
2022-12-09T19:49:03.280Z,144.27
2022-12-09T19:51:32.374Z,116.78
2022-12-09T19:54:00.856Z,113.28
2022-12-09T19:56:28.391Z,120.68
2022-12-09T19:58:56.399Z,128.18
2022-12-09T20:01:25.468Z,117.82
2022-12-09T20:03:56.043Z,119.32
2022-12-09T20:06:24.300Z,132.77
2022-12-09T20:08:53.396Z,119.30
2022-12-09T20:11:22.347Z,130.50
2022-12-09T20:13:50.364Z,168.23
2022-12-09T20:16:19.121Z,128.65
2022-12-09T20:18:48.465Z,129.23
2022-12-09T20:21:17.341Z,147.10
2022-12-09T20:23:45.297Z,138.15
2022-12-09T20:26:15.072Z,144.02
2022-12-09T20:28:44.491Z,135.85
2022-12-09T20:31:13.439Z,145.18
2022-12-09T20:33:42.181Z,136.35
2022-12-09T20:36:13.163Z,127.32
2022-12-09T20:38:40.922Z,139.60
2022-12-09T20:41:10.041Z,125.28
2022-12-09T20:43:40.269Z,149.07
2022-12-09T20:46:08.911Z,171.05
2022-12-09T20:48:37.084Z,139.35
2022-12-09T20:51:05.291Z,163.27
2022-12-09T20:53:32.808Z,127.82
2022-12-09T20:56:00.898Z,123.72
2022-12-09T20:58:28.776Z,118.82
2022-12-09T21:01:04.823Z,118.80
2022-12-09T21:03:32.579Z,109.97
2022-12-09T21:06:00.829Z,115.40
2022-12-09T21:08:31.512Z,131.63
2022-12-09T21:11:03.384Z,141.27
2022-12-09T21:13:30.956Z,121.13
2022-12-09T21:16:05.107Z,131.23
2022-12-09T21:21:00.749Z,124.18
2022-12-09T21:23:35.810Z,112.35
2022-12-09T21:26:04.484Z,110.78
2022-12-09T21:28:32.010Z,120.68
2022-12-09T21:31:03.582Z,120.70
2022-12-09T21:33:32.478Z,97.80
2022-12-09T21:35:59.974Z,111.80
2022-12-09T21:38:27.548Z,118.05
2022-12-09T21:40:55.048Z,123.35
2022-12-09T21:43:22.564Z,99.60
2022-12-09T21:45:50.104Z,96.38
2022-12-09T21:48:18.499Z,108.20
2022-12-09T21:50:54.044Z,104.05
2022-12-09T21:53:21.563Z,88.95
2022-12-09T21:55:49.057Z,95.28
2022-12-09T21:58:16.558Z,91.93
2022-12-09T22:00:44.445Z,102.13
2022-12-09T22:03:12.052Z,77.53
2022-12-09T22:05:40.518Z,85.00
2022-12-09T22:08:09.444Z,79.45
2022-12-09T22:10:38.296Z,78.82
2022-12-09T22:13:06.079Z,86.78
2022-12-09T22:15:33.628Z,82.85
2022-12-09T22:18:01.132Z,89.65
2022-12-09T22:23:17.644Z,99.80
2022-12-09T22:25:45.672Z,101.93
2022-12-09T22:28:13.147Z,85.82
2022-12-09T22:30:40.695Z,106.55
2022-12-09T22:33:08.898Z,89.57
2022-12-09T22:35:36.410Z,100.15
2022-12-09T22:38:10.190Z,100.53
2022-12-09T22:40:41.813Z,96.07
2022-12-09T22:43:09.370Z,90.55
2022-12-09T22:45:37.147Z,94.57
2022-12-09T22:48:04.885Z,99.03
2022-12-09T22:50:32.357Z,91.28
2022-12-09T22:53:00.272Z,90.05
2022-12-09T22:55:27.752Z,92.97
2022-12-09T22:57:56.673Z,91.60
2022-12-09T23:00:24.172Z,92.97
2022-12-09T23:02:51.894Z,90.20
2022-12-09T23:05:19.704Z,99.47
2022-12-09T23:07:47.384Z,98.10
2022-12-09T23:10:15.151Z,77.25
2022-12-09T23:12:42.670Z,93.82
2022-12-09T23:15:12.442Z,88.75
2022-12-09T23:17:39.944Z,87.05
2022-12-09T23:20:08.365Z,102.55
2022-12-09T23:22:36.164Z,91.13
2022-12-09T23:25:03.786Z,82.10
2022-12-09T23:27:31.655Z,75.72
2022-12-09T23:29:59.361Z,77.32
2022-12-09T23:32:28.420Z,75.97
2022-12-09T23:34:56.111Z,84.65
2022-12-09T23:37:23.746Z,78.45
2022-12-09T23:39:51.440Z,81.75
2022-12-09T23:42:20.849Z,79.60
2022-12-09T23:44:48.532Z,94.85
2022-12-09T23:47:16.471Z,76.75
2022-12-09T23:49:45.457Z,71.28
2022-12-09T23:52:12.965Z,84.80
2022-12-09T23:54:40.598Z,80.60
2022-12-09T23:57:08.179Z,78.57
2022-12-09T23:59:35.983Z,73.07
